地図

経路データ

SID SEASON NUMBER BASIN SUBBASIN NAME ISO_TIME NATURE LAT LON WMO_WIND WMO_PRES WMO_AGENCY TRACK_TYPE DIST2LAND LANDFALL IFLAG USA_AGENCY USA_ATCF_ID USA_LAT USA_LON USA_RECORD USA_STATUS USA_WIND USA_PRES USA_SSHS USA_R34_NE USA_R34_SE USA_R34_SW USA_R34_NW USA_R50_NE USA_R50_SE USA_R50_SW USA_R50_NW USA_R64_NE USA_R64_SE USA_R64_SW USA_R64_NW USA_POCI USA_ROCI USA_RMW USA_EYE TOKYO_LAT TOKYO_LON TOKYO_GRADE TOKYO_WIND TOKYO_PRES TOKYO_R50_DIR TOKYO_R50_LONG TOKYO_R50_SHORT TOKYO_R30_DIR TOKYO_R30_LONG TOKYO_R30_SHORT TOKYO_LAND CMA_LAT CMA_LON CMA_CAT CMA_WIND CMA_PRES HKO_LAT HKO_LON HKO_CAT HKO_WIND HKO_PRES NEWDELHI_LAT NEWDELHI_LON NEWDELHI_GRADE NEWDELHI_WIND NEWDELHI_PRES NEWDELHI_CI NEWDELHI_DP NEWDELHI_POCI REUNION_LAT REUNION_LON REUNION_TYPE REUNION_WIND REUNION_PRES REUNION_TNUM REUNION_CI REUNION_RMW REUNION_R34_NE REUNION_R34_SE REUNION_R34_SW REUNION_R34_NW REUNION_R50_NE REUNION_R50_SE REUNION_R50_SW REUNION_R50_NW REUNION_R64_NE REUNION_R64_SE REUNION_R64_SW REUNION_R64_NW BOM_LAT BOM_LON BOM_TYPE BOM_WIND BOM_PRES BOM_TNUM BOM_CI BOM_RMW BOM_R34_NE BOM_R34_SE BOM_R34_SW BOM_R34_NW BOM_R50_NE BOM_R50_SE BOM_R50_SW BOM_R50_NW BOM_R64_NE BOM_R64_SE BOM_R64_SW BOM_R64_NW BOM_ROCI BOM_POCI BOM_EYE BOM_POS_METHOD BOM_PRES_METHOD NADI_LAT NADI_LON NADI_CAT NADI_WIND NADI_PRES WELLINGTON_LAT WELLINGTON_LON WELLINGTON_WIND WELLINGTON_PRES DS824_LAT DS824_LON DS824_STAGE DS824_WIND DS824_PRES TD9636_LAT TD9636_LON TD9636_STAGE TD9636_WIND TD9636_PRES TD9635_LAT TD9635_LON TD9635_WIND TD9635_PRES TD9635_ROCI NEUMANN_LAT NEUMANN_LON NEUMANN_CLASS NEUMANN_WIND NEUMANN_PRES MLC_LAT MLC_LON MLC_CLASS MLC_WIND MLC_PRES USA_GUST BOM_GUST BOM_GUST_PER REUNION_GUST REUNION_GUST_PER USA_SEAHGT USA_SEARAD_NE USA_SEARAD_SE USA_SEARAD_SW USA_SEARAD_NW STORM_SPEED STORM_DIR
1926358N10087 1926 63 NI BB NOT_NAMED 1926-12-24 00:00:00 TS 10.2000 87.0000 main 641 641 _________O____ -1 10.2000 87.0000 TC 30 2 60
1926358N10087 1926 63 NI BB NOT_NAMED 1926-12-24 03:00:00 TS 10.2600 87.1067 main 656 656 _________PO___ -1 10.2900 87.1600 TC 31 10.2000 87.0000 1 3 53
1926358N10087 1926 63 NI BB NOT_NAMED 1926-12-24 06:00:00 TS 10.3732 87.2387 main 671 671 _________OP___ -1 10.4000 87.3000 TC 32 10.3329 87.1467 1 3 44
1926358N10087 1926 63 NI BB NOT_NAMED 1926-12-24 09:00:00 TS 10.5083 87.3549 main 695 695 _________PP___ -1 10.5425 87.4075 TC 33 10.4626 87.2847 1 3 38
1926358N10087 1926 63 NI BB NOT_NAMED 1926-12-24 12:00:00 TS 10.6430 87.4527 main 710 710 _________OP___ -1 10.7000 87.5000 TC 34 10.5860 87.4054 1 3 36
1926358N10087 1926 63 NI BB NOT_NAMED 1926-12-24 15:00:00 TS 10.7750 87.5537 main 729 729 _________PO___ -1 10.8500 87.6075 TC 36 10.7000 87.5000 2 3 34
1926358N10087 1926 63 NI BB NOT_NAMED 1926-12-24 18:00:00 TS 10.9031 87.6326 main 734 734 _________OP___ -1 11.0000 87.7000 TC 39 10.8062 87.5653 2 3 26
1926358N10087 1926 63 NI BB NOT_NAMED 1926-12-24 21:00:00 TS 11.0187 87.6778 main 749 749 _________PP___ -1 11.1125 87.7351 TC 42 10.9249 87.6205 2 3 22
1926358N10087 1926 63 NI BB NOT_NAMED 1926-12-25 00:00:00 TS 11.1906 87.7452 main 758 758 _________OP___ -1 11.3000 87.8000 TC 45 11.0811 87.6904 2 5 23
1926358N10087 1926 63 NI BB NOT_NAMED 1926-12-25 03:00:00 TS 11.4850 87.8850 main 792 792 _________PO___ -1 11.6700 87.9699 TC 45 11.3000 87.8000 3 7 28
1926358N10087 1926 63 NI BB NOT_NAMED 1926-12-25 06:00:00 TS 11.8512 88.0969 main 802 765 _________OP___ -1 12.1000 88.2000 TC 45 11.6023 87.9938 3 9 32
1926358N10087 1926 63 NI BB NOT_NAMED 1926-12-25 09:00:00 TS 12.2089 88.3386 main 765 713 _________PP___ -1 12.4500 88.4500 TC 45 11.9677 88.2271 3 9 33
1926358N10087 1926 63 NI BB NOT_NAMED 1926-12-25 12:00:00 TS 12.5871 88.5860 main 713 671 _________OP___ -1 12.8000 88.7000 TC 45 12.3742 88.4719 3 9 30
1926358N10087 1926 63 NI BB NOT_NAMED 1926-12-25 15:00:00 TS 12.9925 88.8113 main 671 630 _________PO___ -1 13.1850 88.9225 TC 45 12.8000 88.7000 3 9 26
1926358N10087 1926 63 NI BB NOT_NAMED 1926-12-25 18:00:00 TS 13.3789 88.9880 main 630 605 _________OP___ -1 13.6000 89.1000 TC 45 13.1578 88.8761 3 8 21
1926358N10087 1926 63 NI BB NOT_NAMED 1926-12-25 21:00:00 TS 13.7675 89.1192 main 600 573 _________PP___ -1 13.9975 89.2077 TC 45 13.5376 89.0307 3 9 16
1926358N10087 1926 63 NI BB NOT_NAMED 1926-12-26 00:00:00 TS 14.2367 89.2349 main 573 531 _________OP___ -1 14.5000 89.3000 TC 45 13.9735 89.1699 3 11 13
1926358N10087 1926 63 NI BB NOT_NAMED 1926-12-26 03:00:00 TS 14.8525 89.3749 main 529 506 _________PO___ -1 15.2050 89.4499 TC 45 14.5000 89.3000 3 14 11
1926358N10087 1926 63 NI BB NOT_NAMED 1926-12-26 06:00:00 TS 15.5743 89.5162 main 505 491 _________OP___ -1 16.0000 89.6000 TC 45 15.1485 89.4323 3 15 10
1926358N10087 1926 63 NI BB NOT_NAMED 1926-12-26 09:00:00 TS 16.3151 89.6290 main 492 478 _________PP___ -1 16.7425 89.7003 TC 45 15.8877 89.5578 3 15 8
1926358N10087 1926 63 NI BB NOT_NAMED 1926-12-26 12:00:00 TS 17.0915 89.7397 main 473 398 _________OP___ -1 17.5000 89.8000 TC 45 16.6830 89.6793 3 16 8
1926358N10087 1926 63 NI BB NOT_NAMED 1926-12-26 15:00:00 TS 17.8963 89.8750 main 398 341 _________PO___ -1 18.2925 89.9499 TC 45 17.5000 89.8000 3 16 9
1926358N10087 1926 63 NI BB NOT_NAMED 1926-12-26 18:00:00 TS 18.6490 89.9985 main 341 267 _________OP___ -1 19.1000 90.1000 TC 45 18.3107 89.9223 3 16 8
1926358N10087 1926 63 NI BB NOT_NAMED 1926-12-26 21:00:00 TS 19.4283 90.1129 main 267 190 _________PP___ -1 19.9025 90.2125 TC 45 19.1123 90.0465 3 15 8
1926358N10087 1926 63 NI BB NOT_NAMED 1926-12-27 00:00:00 TS 20.1718 90.2150 main 178 123 _________OP___ -1 20.7000 90.3000 TC 45 19.9077 90.1725 3 13 8
1926358N10087 1926 63 NI BB NOT_NAMED 1926-12-27 03:00:00 NR 20.7000 90.3000 main 123 __________O___ -1 TC 20.7000 90.3000 3 11 8

IBTrACS Databaseについて

本データベースは、米国NOAAが公開する1842年以降の世界の熱帯低気圧のベストトラックデータアーカイブInternational Best Track Archive for Climate Stewardship (IBTrACS)を、ウェブで閲覧しやすい形式に変換したものです。

最終更新日:2021-12-03